Time;durP1;ratioP1;P1;durP2;ratioP2;P2;SDS_P1;SDS_P2;PMS_P1;PMS_P2;Temp;Humidity;BMP_temperature;BMP_pressure;BME280_temperature;BME280_humidity;BME280_pressure;Samples;Min_cycle;Max_cycle;Signal;HPM_P1;HPM_P2
2021/12/23 00:02:25;;;;;;;;;;;38.60;2201.60;;;;;;4753481;30;19910;-55
2021/12/23 00:04:51;;;;;;;;;;;38.60;2201.60;;;;;;4753695;30;19917;-58
2021/12/23 00:07:16;;;;;;;;;;;38.60;2201.60;;;;;;4753389;30;19914;-55
2021/12/23 00:12:14;;;;;;;;;;;38.60;2201.60;;;;;;4753440;30;19968;-55
2021/12/23 00:14:40;;;;;;;;;;;38.60;2201.60;;;;;;4753567;30;19933;-55
2021/12/23 00:17:19;;;;;;;;;;;38.50;2201.60;;;;;;4737406;30;20357;-55
2021/12/23 00:25:30;;;;;;;;;;;38.50;2201.60;;;;;;4737263;30;19972;-55
2021/12/23 00:27:56;;;;;;;;;;;38.40;2201.60;;;;;;4753163;30;19991;-55
2021/12/23 00:30:22;;;;;;;;;;;38.40;2201.60;;;;;;4753387;30;19950;-55
2021/12/23 00:32:47;;;;;;;;;;;38.50;2201.60;;;;;;4753550;30;20399;-56
2021/12/23 00:35:13;;;;;;;;;;;38.50;2201.60;;;;;;4753175;30;19910;-55
2021/12/23 00:37:42;;;;;;;;;;;38.50;2201.60;;;;;;4753292;30;19910;-55
2021/12/23 00:40:09;;;;;;;;;;;38.50;2201.60;;;;;;4737203;30;19910;-56
2021/12/23 00:42:35;;;;;;;;;;;38.40;2201.60;;;;;;4753119;30;19910;-55
2021/12/23 00:45:03;;;;;;;;;;;38.40;2201.60;;;;;;4756928;30;19910;-57
2021/12/23 00:47:29;;;;;;;;;;;38.40;2201.60;;;;;;4756619;30;19921;-55
2021/12/23 00:49:54;;;;;;;;;;;38.50;2201.60;;;;;;4726452;30;19910;-59
2021/12/23 00:52:27;;;;;;;;;;;38.50;2201.60;;;;;;4756692;30;19910;-55
2021/12/23 00:54:53;;;;;;;;;;;38.60;2201.60;;;;;;4756571;30;19953;-56
2021/12/23 00:57:25;;;;;;;;;;;38.50;2201.60;;;;;;4756628;30;19953;-60
2021/12/23 00:59:51;;;;;;;;;;;38.50;2201.60;;;;;;4740634;30;19916;-57
2021/12/23 01:02:17;;;;;;;;;;;38.40;2201.60;;;;;;4756413;30;19910;-57
2021/12/23 01:04:43;;;;;;;;;;;38.40;2201.60;;;;;;4740547;30;19916;-59
2021/12/23 01:07:09;;;;;;;;;;;38.40;2201.60;;;;;;4756462;30;19968;-56
2021/12/23 01:09:35;;;;;;;;;;;38.50;2201.60;;;;;;4756366;30;20353;-56
2021/12/23 01:12:01;;;;;;;;;;;38.50;2201.60;;;;;;4756222;30;20009;-58
2021/12/23 01:14:39;;;;;;;;;;;38.50;2201.60;;;;;;4756565;30;19956;-56
2021/12/23 01:17:23;;;;;;;;;;;38.60;2201.60;;;;;;4756211;30;20373;-56
2021/12/23 01:19:52;;;;;;;;;;;38.60;2201.60;;;;;;4756295;30;19917;-56
2021/12/23 01:22:18;;;;;;;;;;;38.70;2201.60;;;;;;4756495;30;19917;-56
2021/12/23 01:24:43;;;;;;;;;;;38.60;2201.60;;;;;;4756014;30;20395;-57
2021/12/23 01:27:09;;;;;;;;;;;38.60;2201.60;;;;;;4756015;30;19910;-57
2021/12/23 01:29:35;;;;;;;;;;;38.50;2201.60;;;;;;4756093;30;19921;-56
2021/12/23 01:32:04;;;;;;;;;;;38.60;2201.60;;;;;;4740130;30;20448;-56
2021/12/23 01:34:33;;;;;;;;;;;38.60;2201.60;;;;;;4755910;30;19918;-56
2021/12/23 01:37:03;;;;;;;;;;;38.50;2201.60;;;;;;4756245;30;20372;-59
2021/12/23 01:39:28;;;;;;;;;;;38.50;2201.60;;;;;;4756149;30;20353;-57
2021/12/23 01:41:54;;;;;;;;;;;38.50;2201.60;;;;;;4755887;30;19917;-60
2021/12/23 01:44:20;;;;;;;;;;;38.50;2201.60;;;;;;4755814;30;19917;-59
2021/12/23 01:46:47;;;;;;;;;;;38.50;2201.60;;;;;;4755818;30;20324;-57
2021/12/23 01:49:15;;;;;;;;;;;38.50;2201.60;;;;;;4755759;30;19918;-60
2021/12/23 01:51:40;;;;;;;;;;;38.60;2201.60;;;;;;4739856;30;20284;-60
2021/12/23 01:54:06;;;;;;;;;;;38.60;2201.60;;;;;;4755195;30;19914;-60
2021/12/23 01:56:32;;;;;;;;;;;38.50;2201.60;;;;;;4755403;30;19910;-56
2021/12/23 01:58:57;;;;;;;;;;;38.60;2201.60;;;;;;4755631;30;19916;-59
2021/12/23 02:01:23;;;;;;;;;;;38.60;2201.60;;;;;;4755780;30;19997;-60
2021/12/23 02:03:49;;;;;;;;;;;38.60;2201.60;;;;;;4755731;30;19914;-56
2021/12/23 02:06:15;;;;;;;;;;;38.60;2201.60;;;;;;4755506;30;20332;-59
2021/12/23 02:08:40;;;;;;;;;;;38.60;2201.60;;;;;;4755337;30;20012;-57
2021/12/23 02:11:07;;;;;;;;;;;38.50;2201.60;;;;;;4755342;30;19914;-60
2021/12/23 02:13:34;;;;;;;;;;;38.50;2201.60;;;;;;4755344;30;19949;-59
2021/12/23 02:15:59;;;;;;;;;;;38.60;2201.60;;;;;;4755277;30;19910;-56
2021/12/23 02:18:26;;;;;;;;;;;38.50;2201.60;;;;;;4755332;30;19966;-56
2021/12/23 02:20:53;;;;;;;;;;;38.50;2201.60;;;;;;4755200;30;20395;-56
2021/12/23 02:23:19;;;;;;;;;;;38.60;2201.60;;;;;;4739090;30;19910;-57
2021/12/23 02:25:45;;;;;;;;;;;38.60;2201.60;;;;;;4755472;30;19918;-56
2021/12/23 02:28:17;;;;;;;;;;;38.60;2201.60;;;;;;4754735;30;20379;-56
2021/12/23 02:30:43;;;;;;;;;;;38.60;2201.60;;;;;;4756217;30;20273;-57
2021/12/23 02:33:09;;;;;;;;;;;38.60;2201.60;;;;;;4754980;30;19910;-56
2021/12/23 02:35:35;;;;;;;;;;;38.50;2201.60;;;;;;4754972;30;20345;-56
2021/12/23 02:38:01;;;;;;;;;;;38.50;2201.60;;;;;;4755353;30;20377;-59
2021/12/23 02:40:27;;;;;;;;;;;38.60;2201.60;;;;;;4754910;30;19921;-57
2021/12/23 02:42:53;;;;;;;;;;;38.70;2201.60;;;;;;4754815;30;20435;-57
2021/12/23 02:45:19;;;;;;;;;;;38.70;2201.60;;;;;;4754788;30;20360;-56
2021/12/23 02:47:45;;;;;;;;;;;38.70;2201.60;;;;;;4754752;30;19955;-56
2021/12/23 02:50:10;;;;;;;;;;;38.70;2201.60;;;;;;4754947;30;19917;-56
2021/12/23 02:52:36;;;;;;;;;;;38.70;2201.60;;;;;;4754687;30;20444;-60
2021/12/23 02:55:02;;;;;;;;;;;38.70;2201.60;;;;;;4754708;30;19967;-59
2021/12/23 02:57:30;;;;;;;;;;;38.90;2201.60;;;;;;4754491;30;20004;-56
2021/12/23 02:59:55;;;;;;;;;;;38.90;2201.60;;;;;;4754621;30;19911;-56
2021/12/23 03:02:21;;;;;;;;;;;39.00;2201.60;;;;;;4754624;30;19917;-59
2021/12/23 03:04:47;;;;;;;;;;;39.00;2201.60;;;;;;4755013;30;19921;-57
2021/12/23 03:07:14;;;;;;;;;;;39.00;2201.60;;;;;;4754271;30;19910;-56
2021/12/23 03:09:40;;;;;;;;;;;39.00;2201.60;;;;;;4754367;30;20392;-56
2021/12/23 03:12:05;;;;;;;;;;;39.10;2201.60;;;;;;4754329;30;19998;-56
2021/12/23 03:14:31;;;;;;;;;;;39.10;2201.60;;;;;;4754609;30;19910;-56
2021/12/23 03:16:57;;;;;;;;;;;39.20;2201.60;;;;;;4754470;30;19967;-56
2021/12/23 03:19:22;;;;;;;;;;;39.30;2201.60;;;;;;4754270;30;20004;-56
2021/12/23 03:21:48;;;;;;;;;;;39.30;2201.60;;;;;;4754236;30;19910;-56
2021/12/23 03:24:17;;;;;;;;;;;39.30;2201.60;;;;;;4753898;30;19921;-55
2021/12/23 03:26:42;;;;;;;;;;;39.30;2201.60;;;;;;4754062;30;19921;-56
2021/12/23 03:29:11;;;;;;;;;;;39.30;2201.60;;;;;;4738096;30;19918;-56
2021/12/23 03:31:37;;;;;;;;;;;39.30;2201.60;;;;;;4754058;30;19918;-56
2021/12/23 03:34:03;;;;;;;;;;;39.30;2201.60;;;;;;4754294;30;19952;-59
2021/12/23 03:36:28;;;;;;;;;;;64.00;2201.60;;;;;;4753946;30;19953;-59
2021/12/23 03:38:55;;;;;;;;;;;39.30;2201.60;;;;;;4753961;30;19953;-59
2021/12/23 03:41:20;;;;;;;;;;;64.00;2201.60;;;;;;4753869;30;19916;-58
2021/12/23 03:43:46;;;;;;;;;;;39.30;2201.60;;;;;;4754117;30;19910;-56
2021/12/23 03:46:12;;;;;;;;;;;39.30;2201.60;;;;;;4753771;30;19914;-60
2021/12/23 03:48:37;;;;;;;;;;;39.30;2201.60;;;;;;4753672;30;20284;-56
2021/12/23 03:51:03;;;;;;;;;;;64.00;2201.60;;;;;;4754197;30;19910;-59
2021/12/23 03:53:29;;;;;;;;;;;39.30;2201.60;;;;;;4753656;30;19917;-56
2021/12/23 03:55:55;;;;;;;;;;;64.00;2201.60;;;;;;4753696;30;19910;-59
2021/12/23 03:58:21;;;;;;;;;;;39.30;2201.60;;;;;;4753574;30;19961;-56
2021/12/23 04:00:47;;;;;;;;;;;39.30;2201.60;;;;;;4753794;30;19914;-56
2021/12/23 04:03:13;;;;;;;;;;;64.00;2201.60;;;;;;4753432;30;19910;-56
2021/12/23 04:05:39;;;;;;;;;;;64.00;2201.60;;;;;;4753762;30;19952;-56
2021/12/23 04:08:05;;;;;;;;;;;64.00;2201.60;;;;;;4753319;30;19968;-60
2021/12/23 04:10:31;;;;;;;;;;;64.00;2201.60;;;;;;4737603;30;20009;-59
2021/12/23 04:12:57;;;;;;;;;;;64.00;2201.60;;;;;;4753395;30;20430;-57
2021/12/23 04:15:22;;;;;;;;;;;39.30;2201.60;;;;;;4753933;30;20085;-56
2021/12/23 04:17:48;;;;;;;;;;;64.00;2201.60;;;;;;4753111;30;19916;-56
2021/12/23 04:20:22;;;;;;;;;;;64.00;2201.60;;;;;;4753887;30;19911;-56
2021/12/23 04:22:51;;;;;;;;;;;39.30;2201.60;;;;;;4753606;30;19949;-56
2021/12/23 04:25:18;;;;;;;;;;;39.30;2201.60;;;;;;4753268;30;19933;-56
2021/12/23 04:27:45;;;;;;;;;;;39.30;2201.60;;;;;;4753192;30;19921;-56
2021/12/23 04:30:11;;;;;;;;;;;39.30;2201.60;;;;;;4753137;30;19968;-56
2021/12/23 04:32:38;;;;;;;;;;;39.20;2201.60;;;;;;4753463;30;20391;-56
2021/12/23 04:35:04;;;;;;;;;;;39.20;2201.60;;;;;;4753144;30;19914;-56
2021/12/23 04:37:29;;;;;;;;;;;39.20;2201.60;;;;;;4753194;30;19910;-56
2021/12/23 04:39:55;;;;;;;;;;;39.30;2201.60;;;;;;4753167;30;19959;-59
2021/12/23 04:42:21;;;;;;;;;;;39.30;2201.60;;;;;;4753011;30;19910;-56
2021/12/23 04:44:46;;;;;;;;;;;64.00;2201.60;;;;;;4753064;30;19920;-56
2021/12/23 04:47:12;;;;;;;;;;;64.00;2201.60;;;;;;4752997;30;19910;-56
2021/12/23 04:49:38;;;;;;;;;;;39.30;2201.60;;;;;;4753042;30;20020;-56
2021/12/23 04:52:04;;;;;;;;;;;64.00;2201.60;;;;;;4753058;30;19910;-56
2021/12/23 04:54:29;;;;;;;;;;;64.00;2201.60;;;;;;4753385;30;19917;-56
2021/12/23 04:56:55;;;;;;;;;;;39.30;2201.60;;;;;;4752936;30;20368;-56
2021/12/23 04:59:21;;;;;;;;;;;64.00;2201.60;;;;;;4753266;30;19975;-56
2021/12/23 05:01:47;;;;;;;;;;;64.00;2201.60;;;;;;4753007;30;20549;-56
2021/12/23 05:04:13;;;;;;;;;;;64.00;2201.60;;;;;;4737024;30;19910;-56
2021/12/23 05:06:38;;;;;;;;;;;64.00;2201.60;;;;;;4752790;30;19917;-56
2021/12/23 05:09:04;;;;;;;;;;;39.30;2201.60;;;;;;4752815;30;19976;-56
2021/12/23 05:11:30;;;;;;;;;;;39.30;2201.60;;;;;;4752852;30;19953;-56
2021/12/23 05:13:55;;;;;;;;;;;39.20;2201.60;;;;;;4752815;30;20360;-56
2021/12/23 05:16:21;;;;;;;;;;;39.30;2201.60;;;;;;4753004;30;20295;-56
2021/12/23 05:18:47;;;;;;;;;;;39.30;2201.60;;;;;;4753207;30;19931;-56
2021/12/23 05:21:12;;;;;;;;;;;64.00;2201.60;;;;;;4753164;30;20368;-56
2021/12/23 05:23:39;;;;;;;;;;;39.30;2201.60;;;;;;4752601;30;19918;-56
2021/12/23 05:26:07;;;;;;;;;;;39.30;2201.60;;;;;;4753047;30;19976;-55
2021/12/23 05:28:33;;;;;;;;;;;64.00;2201.60;;;;;;4752720;30;19928;-56
2021/12/23 05:30:59;;;;;;;;;;;64.00;2201.60;;;;;;4755499;30;20331;-56
2021/12/23 05:33:25;;;;;;;;;;;64.00;2201.60;;;;;;4756091;30;19914;-56
2021/12/23 05:35:50;;;;;;;;;;;64.00;2201.60;;;;;;4756003;30;19910;-56
2021/12/23 05:38:16;;;;;;;;;;;64.00;2201.60;;;;;;4756118;30;19964;-56
2021/12/23 05:40:42;;;;;;;;;;;64.00;2201.60;;;;;;4756054;30;19910;-56
2021/12/23 05:43:08;;;;;;;;;;;64.10;2201.60;;;;;;4755888;30;19949;-56
2021/12/23 05:45:33;;;;;;;;;;;64.10;2201.60;;;;;;4740123;30;19910;-59
2021/12/23 05:47:59;;;;;;;;;;;64.10;2201.60;;;;;;4755860;30;19914;-56
2021/12/23 05:50:25;;;;;;;;;;;64.20;2201.60;;;;;;4755731;30;19914;-59
2021/12/23 05:52:51;;;;;;;;;;;64.10;2201.60;;;;;;4756328;30;19917;-56
2021/12/23 05:55:17;;;;;;;;;;;64.10;2201.60;;;;;;4755580;30;19921;-56
2021/12/23 05:57:43;;;;;;;;;;;64.10;2201.60;;;;;;4755562;30;19914;-56
2021/12/23 06:00:16;;;;;;;;;;;64.10;2201.60;;;;;;4755599;30;19967;-56
2021/12/23 06:02:42;;;;;;;;;;;64.10;2201.60;;;;;;4755447;30;20292;-56
2021/12/23 06:05:08;;;;;;;;;;;64.10;2201.60;;;;;;4755657;30;19910;-56
2021/12/23 06:07:34;;;;;;;;;;;64.00;2201.60;;;;;;4755644;30;19910;-55
2021/12/23 06:10:00;;;;;;;;;;;64.10;2201.60;;;;;;4755444;30;19918;-56
2021/12/23 06:12:26;;;;;;;;;;;64.00;2201.60;;;;;;4755363;30;19910;-55
2021/12/23 06:14:52;;;;;;;;;;;39.30;2201.60;;;;;;4755328;30;20276;-56
2021/12/23 06:17:18;;;;;;;;;;;64.00;2201.60;;;;;;4755352;30;19996;-56
2021/12/23 06:19:44;;;;;;;;;;;64.10;2201.60;;;;;;4755293;30;19910;-56
2021/12/23 06:22:09;;;;;;;;;;;64.00;2201.60;;;;;;4755308;30;20414;-56
2021/12/23 06:24:35;;;;;;;;;;;64.10;2201.60;;;;;;4754958;30;19971;-56
2021/12/23 06:27:01;;;;;;;;;;;64.00;2201.60;;;;;;4755409;30;19914;-56
2021/12/23 06:29:27;;;;;;;;;;;64.10;2201.60;;;;;;4755076;30;20356;-56
2021/12/23 06:31:52;;;;;;;;;;;64.00;2201.60;;;;;;4755363;30;20327;-56
2021/12/23 06:34:18;;;;;;;;;;;64.00;2201.60;;;;;;4754938;30;19910;-59
2021/12/23 06:36:44;;;;;;;;;;;39.30;2201.60;;;;;;4754994;30;19917;-56
2021/12/23 06:39:10;;;;;;;;;;;39.20;2201.60;;;;;;4754916;30;19933;-56
2021/12/23 06:41:35;;;;;;;;;;;39.20;2201.60;;;;;;4754584;30;20361;-56
2021/12/23 06:44:01;;;;;;;;;;;39.00;2201.60;;;;;;4754916;30;19911;-57
2021/12/23 06:46:27;;;;;;;;;;;39.00;2201.60;;;;;;4754817;30;19921;-57
2021/12/23 06:48:53;;;;;;;;;;;38.90;2201.60;;;;;;4754914;30;20406;-56
2021/12/23 06:51:18;;;;;;;;;;;38.80;2201.60;;;;;;4754750;30;19999;-56
2021/12/23 06:53:44;;;;;;;;;;;38.70;2201.60;;;;;;4754682;30;20361;-56
2021/12/23 06:56:11;;;;;;;;;;;38.50;2201.60;;;;;;4754670;30;19941;-57
2021/12/23 06:58:39;;;;;;;;;;;38.40;2201.60;;;;;;4754558;30;19987;-56
2021/12/23 07:01:05;;;;;;;;;;;38.40;2201.60;;;;;;4754461;30;19932;-56
2021/12/23 07:04:00;;;;;;;;;;;13.70;2201.60;;;;;;4754522;30;19910;-57
2021/12/23 07:06:22;;;;;;;;;;;13.60;2201.60;;;;;;4753996;30;20001;-59
2021/12/23 07:08:48;;;;;;;;;;;13.50;2201.60;;;;;;4754358;30;19925;-57
2021/12/23 07:11:14;;;;;;;;;;;13.50;2201.60;;;;;;4754416;30;20361;-60
2021/12/23 07:13:40;;;;;;;;;;;13.50;2201.60;;;;;;4757106;30;21380;-59
2021/12/23 07:16:06;;;;;;;;;;;13.60;2201.60;;;;;;4753767;30;20013;-56
2021/12/23 07:18:31;;;;;;;;;;;13.40;2201.60;;;;;;4771916;30;20004;-59
2021/12/23 07:20:57;;;;;;;;;;;13.30;2201.60;;;;;;4771994;30;20330;-56
2021/12/23 07:23:23;;;;;;;;;;;13.20;2201.60;;;;;;4771966;30;20241;-59
2021/12/23 07:25:49;;;;;;;;;;;13.10;2201.60;;;;;;4771957;30;19917;-59
2021/12/23 07:28:14;;;;;;;;;;;13.00;2201.60;;;;;;4771737;30;19925;-59
2021/12/23 07:30:40;;;;;;;;;;;13.00;2201.60;;;;;;4771610;30;19910;-57
2021/12/23 07:33:06;;;;;;;;;;;13.00;2201.60;;;;;;4771120;30;19964;-59
2021/12/23 07:35:31;;;;;;;;;;;12.90;2201.60;;;;;;4771583;30;19952;-57
2021/12/23 07:38:00;;;;;;;;;;;12.90;2201.60;;;;;;4771640;30;20001;-56
2021/12/23 07:40:26;;;;;;;;;;;0.00;2201.60;;;;;;4771343;30;20304;-56
2021/12/23 07:42:53;;;;;;;;;;;0.00;2201.60;;;;;;4771565;30;20283;-59
2021/12/23 07:45:20;;;;;;;;;;;0.00;2201.60;;;;;;4771566;30;19917;-56
2021/12/23 07:47:45;;;;;;;;;;;0.10;2201.60;;;;;;4771507;30;19913;-59
2021/12/23 07:50:11;;;;;;;;;;;0.00;2201.60;;;;;;4771420;30;19921;-59
2021/12/23 07:52:37;;;;;;;;;;;0.20;2201.60;;;;;;4770768;30;20011;-58
2021/12/23 07:55:04;;;;;;;;;;;0.30;2201.60;;;;;;4771376;30;20249;-56
2021/12/23 07:57:29;;;;;;;;;;;0.30;2201.60;;;;;;4771247;30;20371;-56
2021/12/23 07:59:58;;;;;;;;;;;0.40;2201.60;;;;;;4761496;30;19914;-56
2021/12/23 08:02:23;;;;;;;;;;;0.40;2201.60;;;;;;4753505;30;19911;-57
2021/12/23 08:04:49;;;;;;;;;;;0.40;2201.60;;;;;;4753050;30;19910;-59
2021/12/23 08:07:15;;;;;;;;;;;0.50;2201.60;;;;;;4753341;30;19917;-57
2021/12/23 08:09:40;;;;;;;;;;;0.60;2201.60;;;;;;4753083;30;19918;-58
2021/12/23 08:12:08;;;;;;;;;;;0.70;2201.60;;;;;;4753293;30;20258;-56
2021/12/23 08:14:34;;;;;;;;;;;0.80;2201.60;;;;;;4753148;30;20367;-59
2021/12/23 08:16:59;;;;;;;;;;;0.80;2201.60;;;;;;4753119;30;19917;-58
2021/12/23 08:19:25;;;;;;;;;;;0.90;2201.60;;;;;;4753212;30;19910;-59
2021/12/23 08:21:51;;;;;;;;;;;0.90;2201.60;;;;;;4753216;30;19910;-56
2021/12/23 08:24:17;;;;;;;;;;;25.60;2201.60;;;;;;4753054;30;20389;-56
2021/12/23 08:26:50;;;;;;;;;;;25.70;2201.60;;;;;;4756024;30;20395;-60
2021/12/23 08:29:18;;;;;;;;;;;25.80;2201.60;;;;;;4773274;30;20395;-60
2021/12/23 08:31:43;;;;;;;;;;;25.70;2201.60;;;;;;4788284;30;19916;-55
2021/12/23 08:34:09;;;;;;;;;;;25.60;2201.60;;;;;;4788395;30;19909;-55
2021/12/23 08:36:35;;;;;;;;;;;25.70;2201.60;;;;;;4788311;30;20004;-55
2021/12/23 08:39:01;;;;;;;;;;;25.70;2201.60;;;;;;4788384;30;20004;-57
2021/12/23 08:41:26;;;;;;;;;;;25.80;2201.60;;;;;;4788290;30;20011;-55
2021/12/23 08:43:52;;;;;;;;;;;25.80;2201.60;;;;;;4788245;30;19909;-60
2021/12/23 08:46:18;;;;;;;;;;;25.90;2201.60;;;;;;4772103;30;19910;-59
2021/12/23 08:48:44;;;;;;;;;;;25.90;2201.60;;;;;;4788107;30;20010;-59
2021/12/23 08:51:09;;;;;;;;;;;25.80;2201.60;;;;;;4788173;30;20295;-55
2021/12/23 08:53:35;;;;;;;;;;;26.00;2201.60;;;;;;4788025;30;19910;-55
2021/12/23 08:56:01;;;;;;;;;;;26.10;2201.60;;;;;;4778482;30;20360;-59
2021/12/23 08:58:26;;;;;;;;;;;26.20;2201.60;;;;;;4769969;30;19932;-59
2021/12/23 09:00:52;;;;;;;;;;;26.20;2201.60;;;;;;4770140;30;19960;-55
2021/12/23 09:03:17;;;;;;;;;;;26.10;2201.60;;;;;;4770098;30;19910;-58
2021/12/23 09:05:44;;;;;;;;;;;26.00;2201.60;;;;;;4773385;30;19935;-55
2021/12/23 09:08:10;;;;;;;;;;;26.00;2201.60;;;;;;4773564;30;19918;-58
2021/12/23 09:10:36;;;;;;;;;;;26.10;2201.60;;;;;;4772573;30;20003;-54
2021/12/23 09:13:02;;;;;;;;;;;26.20;2201.60;;;;;;4755807;30;19910;-56
2021/12/23 09:15:28;;;;;;;;;;;26.20;2201.60;;;;;;4755518;30;19911;-55
2021/12/23 09:17:54;;;;;;;;;;;26.30;2201.60;;;;;;4755811;30;19921;-59
2021/12/23 09:20:20;;;;;;;;;;;26.40;2201.60;;;;;;4755751;30;19918;-59
2021/12/23 09:22:47;;;;;;;;;;;26.40;2201.60;;;;;;4755707;30;19917;-57
2021/12/23 09:25:22;;;;;;;;;;;26.50;2201.60;;;;;;4755239;30;20367;-55
2021/12/23 09:28:01;;;;;;;;;;;26.50;2201.60;;;;;;4755566;30;19917;-58
2021/12/23 09:33:12;;;;;;;;;;;26.50;2201.60;;;;;;4755842;30;19917;-55
2021/12/23 09:35:38;;;;;;;;;;;51.20;2227.20;;;;;;4755231;30;19964;-59
2021/12/23 09:38:05;;;;;;;;;;;51.20;2227.20;;;;;;4755471;30;19910;-60
2021/12/23 09:40:32;;;;;;;;;;;51.20;2227.20;;;;;;4755387;30;19914;-58
2021/12/23 09:43:03;;;;;;;;;;;26.50;2201.60;;;;;;4755468;30;19910;-55
2021/12/23 09:45:29;;;;;;;;;;;51.20;2227.20;;;;;;4754956;30;20056;-56
2021/12/23 09:47:56;;;;;;;;;;;51.30;2227.20;;;;;;4755432;30;19936;-57
2021/12/23 09:50:23;;;;;;;;;;;51.40;2227.20;;;;;;4755369;30;19914;-55
2021/12/23 09:52:50;;;;;;;;;;;51.40;2227.20;;;;;;4755312;30;19914;-56
2021/12/23 09:55:17;;;;;;;;;;;51.50;2227.20;;;;;;4755124;30;20394;-56
2021/12/23 09:57:44;;;;;;;;;;;51.50;2227.20;;;;;;4755028;30;19914;-60
2021/12/23 10:00:11;;;;;;;;;;;51.60;2227.20;;;;;;4755301;30;19914;-55
2021/12/23 10:02:41;;;;;;;;;;;51.70;2227.20;;;;;;4755399;30;19921;-61
2021/12/23 10:05:18;;;;;;;;;;;51.80;2227.20;;;;;;4755184;30;19939;-58
2021/12/23 10:07:45;;;;;;;;;;;51.80;2227.20;;;;;;4755099;30;19927;-58
2021/12/23 10:39:43;;;;;;;;;;;77.10;2227.20;;;;;;4743980;30;20349;-58
2021/12/23 10:42:14;;;;;;;;;;;77.20;2227.20;;;;;;4743895;30;19913;-57
2021/12/23 10:44:41;;;;;;;;;;;77.20;2227.20;;;;;;4742920;30;19911;-60
2021/12/23 10:47:08;;;;;;;;;;;77.10;2227.20;;;;;;4741998;30;19915;-59
2021/12/23 10:49:47;;;;;;;;;;;77.10;2227.20;;;;;;4750250;30;19967;-58
2021/12/23 10:52:18;;;;;;;;;;;77.10;2227.20;;;;;;4763562;30;19914;-58
2021/12/23 11:00:10;;;;;;;;;;;77.10;2227.20;;;;;;4763350;30;19961;-60
2021/12/23 11:02:37;;;;;;;;;;;77.00;2227.20;;;;;;4761995;30;19910;-57
2021/12/23 11:07:39;;;;;;;;;;;77.00;2227.20;;;;;;4762786;30;19910;-61
2021/12/23 11:10:22;;;;;;;;;;;77.00;2227.20;;;;;;4762895;30;19948;-58
2021/12/23 11:37:42;;;;;;;;;;;77.10;2227.20;;;;;;4771770;30;19955;-56
2021/12/23 11:40:25;;;;;;;;;;;77.20;2227.20;;;;;;4771540;30;20420;-55
2021/12/23 11:43:23;;;;;;;;;;;76.90;2227.20;;;;;;4771585;30;19914;-60
2021/12/23 11:45:49;;;;;;;;;;;77.00;2227.20;;;;;;4771293;30;19992;-56
2021/12/23 11:48:15;;;;;;;;;;;77.00;2227.20;;;;;;4771163;30;19963;-60
2021/12/23 11:50:53;;;;;;;;;;;76.90;2227.20;;;;;;4771427;30;19983;-57
2021/12/23 11:53:21;;;;;;;;;;;76.90;2227.20;;;;;;4771261;30;19910;-61
2021/12/23 11:55:48;;;;;;;;;;;76.80;2227.20;;;;;;4771255;30;20271;-55
2021/12/23 11:58:14;;;;;;;;;;;76.90;2227.20;;;;;;4758087;30;19914;-57
2021/12/23 12:00:43;;;;;;;;;;;76.90;2227.20;;;;;;4753316;30;19914;-57
2021/12/23 12:03:10;;;;;;;;;;;76.80;2227.20;;;;;;4753171;30;19956;-56
2021/12/23 12:05:36;;;;;;;;;;;52.10;2227.20;;;;;;4753326;30;19968;-56
2021/12/23 12:08:10;;;;;;;;;;;76.80;2227.20;;;;;;4752951;30;20013;-56
2021/12/23 12:10:37;;;;;;;;;;;52.10;2227.20;;;;;;4753540;30;20387;-57
2021/12/23 12:13:04;;;;;;;;;;;52.10;2227.20;;;;;;4753326;30;20425;-60
2021/12/23 12:15:34;;;;;;;;;;;52.10;2227.20;;;;;;4753257;30;20012;-60
2021/12/23 12:18:01;;;;;;;;;;;52.10;2227.20;;;;;;4753034;30;20376;-58
2021/12/23 12:23:29;;;;;;;;;;;52.10;2227.20;;;;;;4733475;30;20320;-59
2021/12/23 12:26:02;;;;;;;;;;;52.10;2227.20;;;;;;4733471;30;19960;-59
2021/12/23 12:28:34;;;;;;;;;;;52.00;2227.20;;;;;;4733370;30;19923;-60
2021/12/23 12:31:06;;;;;;;;;;;52.10;2227.20;;;;;;4732976;30;20380;-55
2021/12/23 12:33:34;;;;;;;;;;;52.00;2227.20;;;;;;4733332;30;19932;-56
2021/12/23 12:36:05;;;;;;;;;;;52.10;2227.20;;;;;;4733423;30;19910;-60
2021/12/23 12:38:33;;;;;;;;;;;52.10;2227.20;;;;;;4733005;30;19911;-56
2021/12/23 12:41:01;;;;;;;;;;;52.10;2227.20;;;;;;4733406;30;19910;-56
2021/12/23 12:43:40;;;;;;;;;;;52.10;2227.20;;;;;;4733284;30;20281;-57
2021/12/23 12:46:06;;;;;;;;;;;76.80;2227.20;;;;;;4733513;30;19953;-57
2021/12/23 12:48:50;;;;;;;;;;;76.80;2227.20;;;;;;4733028;30;19958;-57
2021/12/23 12:51:20;;;;;;;;;;;76.80;2227.20;;;;;;4733259;30;19911;-60
2021/12/23 12:53:52;;;;;;;;;;;76.80;2227.20;;;;;;4733202;30;19910;-61
2021/12/23 12:56:26;;;;;;;;;;;76.80;2227.20;;;;;;4733289;30;19957;-60
2021/12/23 12:58:53;;;;;;;;;;;52.10;2227.20;;;;;;4741274;30;19910;-58
2021/12/23 13:01:34;;;;;;;;;;;52.10;2227.20;;;;;;4753251;30;20333;-55
2021/12/23 13:04:01;;;;;;;;;;;76.80;2227.20;;;;;;4752832;30;20283;-55
2021/12/23 13:06:37;;;;;;;;;;;76.80;2227.20;;;;;;4752664;30;19949;-57
2021/12/23 13:09:03;;;;;;;;;;;52.10;2227.20;;;;;;4752437;30;19976;-57
2021/12/23 13:11:29;;;;;;;;;;;52.10;2227.20;;;;;;4752632;30;20368;-56
2021/12/23 13:14:01;;;;;;;;;;;52.00;2227.20;;;;;;4752629;30;19910;-59
2021/12/23 13:16:28;;;;;;;;;;;52.00;2227.20;;;;;;4752701;30;19914;-55
2021/12/23 13:19:12;;;;;;;;;;;51.90;2227.20;;;;;;4752498;30;19910;-58
2021/12/23 13:21:42;;;;;;;;;;;52.00;2227.20;;;;;;4736685;30;20284;-58
2021/12/23 13:24:10;;;;;;;;;;;52.00;2227.20;;;;;;4763352;30;19929;-56
2021/12/23 13:26:35;;;;;;;;;;;52.10;2227.20;;;;;;4769269;30;20002;-55
2021/12/23 13:29:03;;;;;;;;;;;52.10;2227.20;;;;;;4757840;30;19969;-57
2021/12/23 13:31:30;;;;;;;;;;;52.00;2227.20;;;;;;4759770;30;20284;-56
2021/12/23 13:34:07;;;;;;;;;;;51.90;2227.20;;;;;;4752462;30;19910;-56
2021/12/23 13:36:33;;;;;;;;;;;51.90;2227.20;;;;;;4746299;30;19910;-59
2021/12/23 13:39:03;;;;;;;;;;;51.90;2227.20;;;;;;4762491;30;20007;-56
2021/12/23 13:41:35;;;;;;;;;;;51.80;2227.20;;;;;;4751923;30;19931;-60
2021/12/23 13:44:15;;;;;;;;;;;51.90;2227.20;;;;;;4751421;30;19910;-56
2021/12/23 13:46:42;;;;;;;;;;;51.90;2227.20;;;;;;4752044;30;19917;-59
2021/12/23 13:49:08;;;;;;;;;;;51.80;2227.20;;;;;;4755085;30;19926;-56
2021/12/23 13:51:35;;;;;;;;;;;51.80;2227.20;;;;;;4767943;30;19920;-60
2021/12/23 13:54:11;;;;;;;;;;;51.80;2227.20;;;;;;4763113;30;20048;-58
2021/12/23 13:56:38;;;;;;;;;;;51.80;2227.20;;;;;;4765402;30;19918;-57
2021/12/23 13:59:11;;;;;;;;;;;51.90;2227.20;;;;;;4772712;30;19917;-59
2021/12/23 14:01:50;;;;;;;;;;;51.90;2227.20;;;;;;4771423;30;19917;-57
2021/12/23 14:04:28;;;;;;;;;;;52.00;2227.20;;;;;;4772340;30;20386;-56
2021/12/23 14:06:53;;;;;;;;;;;52.00;2227.20;;;;;;4771745;30;19909;-58
2021/12/23 14:09:28;;;;;;;;;;;52.00;2227.20;;;;;;4772401;30;19925;-58
2021/12/23 14:11:54;;;;;;;;;;;51.90;2227.20;;;;;;4772773;30;19914;-56
2021/12/23 14:14:19;;;;;;;;;;;52.00;2227.20;;;;;;4772967;30;19975;-62
2021/12/23 14:16:45;;;;;;;;;;;52.00;2227.20;;;;;;4772579;30;19916;-56
2021/12/23 14:19:22;;;;;;;;;;;52.00;2227.20;;;;;;4772335;30;19909;-57
2021/12/23 14:24:32;;;;;;;;;;;51.90;2227.20;;;;;;4772534;30;20403;-56
2021/12/23 14:26:58;;;;;;;;;;;51.80;2227.20;;;;;;4765970;30;19949;-56
2021/12/23 14:29:30;;;;;;;;;;;51.80;2227.20;;;;;;4760409;30;20461;-56
2021/12/23 14:31:55;;;;;;;;;;;51.80;2227.20;;;;;;4769789;30;19959;-55
2021/12/23 14:34:24;;;;;;;;;;;51.80;2227.20;;;;;;4772485;30;19910;-56
2021/12/23 14:36:53;;;;;;;;;;;51.90;2227.20;;;;;;4772243;30;20322;-55
2021/12/23 14:39:30;;;;;;;;;;;51.90;2227.20;;;;;;4771831;30;19909;-55
2021/12/23 14:41:57;;;;;;;;;;;51.90;2227.20;;;;;;4772277;30;19917;-56
2021/12/23 14:44:26;;;;;;;;;;;51.90;2227.20;;;;;;4772078;30;19909;-57
2021/12/23 14:46:57;;;;;;;;;;;51.80;2227.20;;;;;;4772351;30;20004;-55
2021/12/23 14:49:41;;;;;;;;;;;51.90;2227.20;;;;;;4771899;30;20288;-58
2021/12/23 14:52:23;;;;;;;;;;;51.80;2227.20;;;;;;4772107;30;19916;-56
2021/12/23 14:54:52;;;;;;;;;;;51.80;2227.20;;;;;;4772137;30;19917;-59
2021/12/23 14:57:19;;;;;;;;;;;51.90;2227.20;;;;;;4766708;30;19925;-56
2021/12/23 15:00:05;;;;;;;;;;;51.90;2227.20;;;;;;4762545;30;19910;-56
2021/12/23 15:02:31;;;;;;;;;;;51.80;2227.20;;;;;;4762585;30;19917;-56
2021/12/23 15:05:00;;;;;;;;;;;51.70;2227.20;;;;;;4764407;30;19918;-56
2021/12/23 15:07:26;;;;;;;;;;;51.70;2227.20;;;;;;4766086;30;19975;-55
2021/12/23 15:09:56;;;;;;;;;;;51.70;2227.20;;;;;;4763751;30;20367;-57
2021/12/23 15:12:23;;;;;;;;;;;51.70;2227.20;;;;;;4771727;30;19917;-56
2021/12/23 15:14:51;;;;;;;;;;;51.70;2227.20;;;;;;4771703;30;20045;-56
2021/12/23 15:17:23;;;;;;;;;;;51.80;2227.20;;;;;;4766916;30;20009;-56